Time;durP1;ratioP1;P1;durP2;ratioP2;P2;SDS_P1;SDS_P2;PMS_P1;PMS_P2;Temp;Humidity;BMP_temperature;BMP_pressure;BME280_temperature;BME280_humidity;BME280_pressure;Samples;Min_cycle;Max_cycle;Signal;HPM_P1;HPM_P2
2022/03/07 00:00:41;;;;;;;12.80;9.65;;;1.70;58.50;;;-0.12;54.88;96348.00;5024992;28;20030;-64
2022/03/07 00:03:07;;;;;;;14.82;10.35;;;1.80;58.70;;;-0.12;54.91;96342.81;5029210;28;20034;-65
2022/03/07 00:05:33;;;;;;;13.68;9.50;;;1.80;58.70;;;-0.16;55.18;96349.19;5027364;28;20041;-64
2022/03/07 00:07:59;;;;;;;14.90;9.90;;;1.70;58.90;;;-0.16;55.43;96351.75;5018924;28;20041;-65
2022/03/07 00:10:24;;;;;;;14.68;10.30;;;1.70;58.90;;;-0.18;55.43;96347.66;5029063;28;20061;-63
2022/03/07 00:12:50;;;;;;;13.60;10.23;;;1.70;59.30;;;-0.17;55.80;96354.47;5021350;28;20045;-64
2022/03/07 00:15:16;;;;;;;17.00;10.73;;;1.70;59.40;;;-0.16;55.98;96349.19;5010009;28;20061;-63
2022/03/07 00:17:42;;;;;;;15.38;10.52;;;1.70;59.70;;;-0.16;56.23;96349.19;5019303;28;20069;-64
2022/03/07 00:20:09;;;;;;;13.63;10.75;;;1.80;60.00;;;-0.15;56.22;96352.59;5027748;28;20065;-65
2022/03/07 00:22:34;;;;;;;15.15;11.43;;;1.80;60.20;;;-0.16;56.64;96362.09;5003951;28;20036;-63
2022/03/07 00:25:00;;;;;;;15.52;10.80;;;1.70;60.10;;;-0.18;56.75;96358.81;5010370;28;20042;-64
2022/03/07 00:27:26;;;;;;;13.05;10.48;;;1.70;60.60;;;-0.21;57.24;96359.06;5002692;28;20041;-64
2022/03/07 00:29:52;;;;;;;13.40;10.65;;;1.70;60.70;;;-0.22;57.24;96357.41;5021473;28;20103;-63
2022/03/07 00:32:17;;;;;;;15.20;10.82;;;1.70;60.60;;;-0.21;57.48;96363.41;5005179;28;20109;-65
2022/03/07 00:34:43;;;;;;;16.08;11.50;;;1.70;60.90;;;-0.23;57.67;96365.25;4995751;28;20034;-64
2022/03/07 00:37:09;;;;;;;13.43;10.73;;;1.80;60.80;;;-0.24;57.76;96359.25;5010214;28;20197;-63
2022/03/07 00:39:34;;;;;;;16.02;11.60;;;1.80;60.70;;;-0.23;58.04;96360.91;5010128;28;20034;-65
2022/03/07 00:42:00;;;;;;;15.63;11.85;;;1.70;60.90;;;-0.26;58.29;96350.78;5011185;28;20449;-63
2022/03/07 00:44:26;;;;;;;16.15;13.23;;;1.70;61.00;;;-0.26;58.13;96350.78;4992595;28;20041;-63
2022/03/07 00:46:51;;;;;;;17.70;12.57;;;1.80;61.10;;;-0.23;58.52;96354.91;5008027;28;20080;-65
2022/03/07 00:49:17;;;;;;;16.15;13.10;;;1.70;61.70;;;-0.24;58.61;96348.91;4992267;28;20049;-65
2022/03/07 00:51:43;;;;;;;16.90;13.05;;;1.70;61.90;;;-0.26;59.19;96345.63;4992993;28;20069;-63
2022/03/07 00:54:10;;;;;;;16.00;12.63;;;1.70;62.00;;;-0.25;58.90;96346.44;4993543;28;20414;-62
2022/03/07 00:56:36;;;;;;;16.75;12.80;;;1.70;61.80;;;-0.26;59.45;96345.63;5001009;28;20049;-63
2022/03/07 00:59:02;;;;;;;17.70;13.43;;;1.70;62.30;;;-0.26;59.54;96348.22;5008469;28;20038;-63
2022/03/07 01:01:27;;;;;;;17.75;13.75;;;1.70;62.10;;;-0.31;59.39;96338.22;5009124;28;20042;-64
2022/03/07 01:03:53;;;;;;;18.15;13.32;;;1.70;62.30;;;-0.26;59.53;96345.63;5009874;28;20036;-65
2022/03/07 01:06:19;;;;;;;18.23;12.98;;;1.70;62.10;;;-0.24;59.57;96354.09;5013978;28;20042;-64
2022/03/07 01:08:44;;;;;;;19.20;13.80;;;1.70;62.10;;;-0.23;59.57;96342.81;5012712;28;20041;-63
2022/03/07 01:11:10;;;;;;;18.13;13.65;;;1.70;62.20;;;-0.28;59.88;96339.75;5008458;28;20061;-63
2022/03/07 01:13:36;;;;;;;19.00;14.57;;;1.70;62.40;;;-0.29;60.18;96345.03;5018911;28;20472;-65
2022/03/07 01:16:02;;;;;;;20.00;14.15;;;1.70;62.60;;;-0.29;60.06;96343.28;5007598;28;20038;-65
2022/03/07 01:18:28;;;;;;;19.63;14.40;;;1.70;62.60;;;-0.31;60.03;96347.75;5021680;28;20039;-64
2022/03/07 01:20:53;;;;;;;17.48;13.85;;;1.60;62.60;;;-0.34;60.30;96348.81;4992212;28;20122;-65
2022/03/07 01:23:19;;;;;;;18.67;14.43;;;1.60;62.10;;;-0.37;59.85;96348.22;5023732;28;20066;-63
2022/03/07 01:25:45;;;;;;;20.42;14.73;;;1.50;61.90;;;-0.41;59.96;96345.06;5028908;28;20106;-64
2022/03/07 01:28:10;;;;;;;18.10;14.30;;;1.50;61.80;;;-0.42;60.06;96346.00;5019370;28;20426;-63
2022/03/07 01:30:36;;;;;;;20.80;13.93;;;1.50;61.70;;;-0.46;60.26;96335.97;5025245;28;20041;-64
2022/03/07 01:33:02;;;;;;;17.60;13.70;;;1.50;62.00;;;-0.47;60.06;96326.56;4992742;28;20580;-63
2022/03/07 01:35:28;;;;;;;15.73;12.63;;;1.40;61.40;;;-0.52;59.53;96328.69;5019037;28;20627;-65
2022/03/07 01:37:53;;;;;;;16.15;12.00;;;1.30;60.90;;;-0.54;59.34;96333.16;5017685;28;20350;-63
2022/03/07 01:40:19;;;;;;;16.75;12.00;;;1.30;60.60;;;-0.58;59.63;96329.16;5007910;28;20516;-64
2022/03/07 01:42:45;;;;;;;16.15;11.68;;;1.20;60.50;;;-0.60;59.19;96325.88;5024345;28;20044;-63
2022/03/07 01:45:13;;;;;;;15.65;11.18;;;1.20;60.10;;;-0.64;59.16;96336.44;5016833;28;20481;-64
2022/03/07 01:47:39;;;;;;;13.27;10.18;;;1.20;59.30;;;-0.67;58.58;96336.66;5011989;28;20053;-64
2022/03/07 01:50:07;;;;;;;14.23;10.25;;;1.20;59.10;;;-0.68;59.46;96331.59;5010233;28;20098;-63
2022/03/07 01:52:34;;;;;;;13.45;10.60;;;1.10;59.00;;;-0.71;58.57;96335.22;5025558;28;20053;-63
2022/03/07 01:54:59;;;;;;;16.05;10.43;;;1.10;59.20;;;-0.74;58.21;96330.28;5017230;28;20143;-63
2022/03/07 01:57:26;;;;;;;13.77;10.70;;;1.10;59.10;;;-0.79;58.55;96322.06;5021421;28;20054;-63
2022/03/07 01:59:51;;;;;;;14.05;10.38;;;1.10;59.20;;;-0.80;58.28;96335.91;5011169;28;20029;-65
2022/03/07 02:02:17;;;;;;;14.45;10.50;;;1.00;58.90;;;-0.84;58.15;96331.91;5015297;28;20030;-65
2022/03/07 02:04:43;;;;;;;14.25;9.77;;;1.00;58.40;;;-0.85;58.07;96327.69;5010252;28;20131;-66
2022/03/07 02:07:08;;;;;;;14.63;10.55;;;1.10;58.80;;;-0.83;58.47;96341.31;4994778;28;20112;-62
2022/03/07 02:09:34;;;;;;;14.40;9.40;;;1.10;59.20;;;-0.86;58.12;96331.22;5015840;28;20037;-62
2022/03/07 02:12:00;;;;;;;13.38;9.35;;;1.10;58.20;;;-0.85;58.14;96330.28;5007161;28;20034;-64
2022/03/07 02:14:26;;;;;;;13.65;9.60;;;1.10;57.30;;;-0.89;57.97;96328.88;5021913;28;20437;-63
2022/03/07 02:16:51;;;;;;;14.10;9.52;;;0.90;57.90;;;-0.88;57.70;96332.25;5011583;28;20492;-64
2022/03/07 02:19:17;;;;;;;13.13;9.63;;;1.00;58.30;;;-0.89;57.79;96330.63;5015027;28;20030;-64
2022/03/07 02:21:46;;;;;;;13.40;9.60;;;1.00;58.30;;;-0.93;58.41;96330.81;5009839;28;20572;-63
2022/03/07 02:24:12;;;;;;;13.27;9.48;;;1.00;58.40;;;-0.92;57.96;96329.88;4993283;28;20041;-64
2022/03/07 02:26:38;;;;;;;13.77;9.38;;;1.00;58.60;;;-0.97;58.23;96323.41;5011323;28;20462;-63
2022/03/07 02:29:04;;;;;;;13.38;9.80;;;1.00;58.50;;;-0.94;58.14;96334.34;5009450;28;20065;-63
2022/03/07 02:31:30;;;;;;;14.07;9.50;;;1.10;58.30;;;-0.94;58.17;96326.59;5030956;28;20065;-62
2022/03/07 02:33:56;;;;;;;15.18;9.43;;;1.10;58.30;;;-0.92;58.31;96337.63;5016876;28;20457;-64
2022/03/07 02:36:22;;;;;;;13.02;9.13;;;1.10;58.80;;;-0.89;58.12;96326.28;5010121;28;20175;-65
2022/03/07 02:38:47;;;;;;;13.05;9.38;;;1.10;58.90;;;-0.87;58.25;96334.72;5017557;28;20045;-63
2022/03/07 02:41:13;;;;;;;13.88;8.95;;;1.10;58.70;;;-0.89;58.12;96336.59;5012255;28;20088;-64
2022/03/07 02:43:39;;;;;;;12.20;8.98;;;1.10;58.10;;;-0.89;58.03;96330.63;5014299;28;20029;-63
2022/03/07 02:46:05;;;;;;;12.80;9.48;;;1.00;58.10;;;-0.92;58.03;96336.81;5016818;28;20029;-65
2022/03/07 02:48:30;;;;;;;12.57;9.77;;;1.00;58.40;;;-0.93;58.16;96332.56;5012841;28;20512;-65
2022/03/07 02:50:58;;;;;;;13.35;9.30;;;1.10;58.70;;;-0.93;58.54;96338.56;5027760;28;20038;-64
2022/03/07 02:53:25;;;;;;;12.45;9.18;;;1.10;58.60;;;-0.91;58.38;96341.03;5024292;28;20069;-64
2022/03/07 02:55:51;;;;;;;13.30;10.00;;;1.10;58.70;;;-0.88;58.36;96340.00;5028146;28;20106;-62
2022/03/07 02:58:16;;;;;;;12.40;9.15;;;1.10;58.90;;;-0.87;58.69;96326.16;5005683;28;20030;-62
2022/03/07 03:00:42;;;;;;;13.70;8.60;;;1.10;58.80;;;-0.86;58.62;96336.38;4998232;28;20057;-62
2022/03/07 03:03:08;;;;;;;16.27;9.90;;;1.10;58.70;;;-0.86;58.79;96330.38;5013008;28;20044;-63
2022/03/07 03:05:34;;;;;;;13.68;9.23;;;1.10;58.50;;;-0.88;58.48;96327.91;5029406;28;20513;-63
2022/03/07 03:07:59;;;;;;;11.75;9.32;;;1.10;58.90;;;-0.85;58.54;96337.19;5029731;28;20029;-64
2022/03/07 03:10:25;;;;;;;14.60;9.25;;;1.20;59.20;;;-0.87;59.34;96324.41;5017041;28;20129;-63
2022/03/07 03:12:51;;;;;;;12.85;9.20;;;1.20;59.40;;;-0.85;59.17;96332.03;5018152;28;20056;-62
2022/03/07 03:15:17;;;;;;;12.48;9.45;;;1.20;59.10;;;-0.90;58.96;96328.97;5009715;28;20038;-63
2022/03/07 03:17:44;;;;;;;14.55;9.75;;;1.10;58.60;;;-0.93;58.85;96332.56;4994257;28;20061;-62
2022/03/07 03:20:11;;;;;;;14.00;9.02;;;1.00;58.40;;;-0.94;58.66;96338.69;5024489;28;20034;-62
2022/03/07 03:22:38;;;;;;;13.77;9.30;;;0.90;58.50;;;-0.95;58.49;96342.19;5023069;28;20053;-65
2022/03/07 03:25:05;;;;;;;11.65;9.13;;;1.00;58.70;;;-0.95;58.66;96347.38;5006151;28;20091;-64
2022/03/07 03:27:31;;;;;;;12.55;9.10;;;1.00;58.70;;;-0.97;58.72;96346.66;5029346;28;20535;-63
2022/03/07 03:29:57;;;;;;;11.48;8.63;;;1.00;58.40;;;-1.01;58.65;96342.66;5029498;28;20092;-63
2022/03/07 03:32:24;;;;;;;12.40;8.60;;;0.90;58.00;;;-1.01;58.55;96340.91;5029696;28;20038;-63
2022/03/07 03:34:49;;;;;;;12.10;8.45;;;0.90;58.30;;;-1.05;58.31;96334.31;5026129;28;20361;-63
2022/03/07 03:37:15;;;;;;;12.95;9.45;;;0.90;58.30;;;-1.06;58.26;96344.75;5005500;28;20064;-63
2022/03/07 03:39:41;;;;;;;13.25;8.95;;;0.80;57.90;;;-1.07;58.66;96340.53;4985514;28;20132;-62
2022/03/07 03:42:07;;;;;;;12.13;9.15;;;0.90;58.30;;;-1.07;58.45;96348.28;5011581;28;20496;-65
2022/03/07 03:44:32;;;;;;;15.38;9.38;;;0.90;58.40;;;-1.09;58.60;96334.66;5010750;28;20038;-68
2022/03/07 03:46:58;;;;;;;12.27;8.68;;;1.00;58.30;;;-1.06;58.60;96347.34;4977781;28;20398;-66
2022/03/07 03:49:24;;;;;;;13.82;9.25;;;1.00;58.20;;;-1.08;58.29;96342.28;5011335;28;20405;-66
2022/03/07 03:51:50;;;;;;;11.88;8.88;;;0.80;57.80;;;-1.12;58.27;96330.53;5011127;28;20095;-65
2022/03/07 03:54:15;;;;;;;13.52;9.23;;;0.90;57.80;;;-1.11;58.09;96345.09;5000879;28;20434;-64
2022/03/07 03:56:41;;;;;;;12.13;9.00;;;0.80;58.00;;;-1.12;58.35;96345.22;5013709;28;20528;-65
2022/03/07 03:59:07;;;;;;;13.15;8.70;;;0.80;58.30;;;-1.13;58.38;96351.28;5010972;28;20469;-64
2022/03/07 04:01:33;;;;;;;13.85;9.27;;;0.80;58.40;;;-1.15;58.32;96346.22;4993347;28;20057;-64
2022/03/07 04:03:58;;;;;;;13.57;9.15;;;0.80;58.10;;;-1.15;58.55;96348.81;5010696;28;20049;-63
2022/03/07 04:06:24;;;;;;;13.77;10.00;;;0.80;58.00;;;-1.16;58.54;96347.16;4992395;28;20648;-63
2022/03/07 04:08:50;;;;;;;12.65;9.45;;;0.80;58.10;;;-1.16;58.55;96347.16;5009431;28;20072;-63
2022/03/07 04:11:16;;;;;;;13.85;9.40;;;0.80;58.50;;;-1.20;58.38;96342.34;5011092;28;20026;-63
2022/03/07 04:13:42;;;;;;;13.38;9.00;;;0.80;58.50;;;-1.19;58.39;96349.16;5008857;28;20611;-63
2022/03/07 04:16:08;;;;;;;10.85;8.85;;;0.80;58.70;;;-1.20;58.26;96353.47;5010103;28;20050;-63
2022/03/07 04:18:33;;;;;;;13.57;9.48;;;0.80;58.60;;;-1.18;58.81;96366.28;5021970;28;20048;-64
2022/03/07 04:20:59;;;;;;;11.98;9.27;;;0.80;58.10;;;-1.20;58.30;96352.66;5012888;28;20067;-64
2022/03/07 04:23:25;;;;;;;13.43;9.32;;;0.80;58.20;;;-1.20;58.43;96352.66;5018617;28;20068;-65
2022/03/07 04:25:51;;;;;;;12.35;8.82;;;0.80;58.10;;;-1.25;58.45;96346.09;5028715;28;20045;-63
2022/03/07 04:28:17;;;;;;;13.85;9.15;;;0.80;58.20;;;-1.20;58.41;96355.25;5002986;28;20034;-63
2022/03/07 04:30:42;;;;;;;12.32;8.65;;;0.80;58.20;;;-1.24;58.19;96357.22;5010356;28;20042;-63
2022/03/07 04:33:09;;;;;;;12.48;8.90;;;0.70;57.80;;;-1.27;58.60;96353.13;5011290;28;20045;-62
2022/03/07 04:35:35;;;;;;;13.73;8.98;;;0.80;58.10;;;-1.25;58.39;96356.41;5026022;28;20596;-64
2022/03/07 04:38:01;;;;;;;11.88;8.30;;;0.80;57.50;;;-1.24;57.99;96354.66;5027739;28;20026;-64
2022/03/07 04:40:27;;;;;;;13.10;8.70;;;0.80;57.40;;;-1.23;58.57;96358.88;5012642;28;20112;-64
2022/03/07 04:42:55;;;;;;;12.98;9.07;;;0.80;57.40;;;-1.31;58.42;96341.38;5021695;28;20036;-65
2022/03/07 04:45:21;;;;;;;19.85;12.93;;;0.90;57.60;;;-1.19;58.44;96354.31;5009258;28;20141;-65
2022/03/07 04:47:47;;;;;;;14.90;10.95;;;0.90;58.00;;;-1.19;58.95;96356.88;5012450;28;20100;-66
2022/03/07 04:50:13;;;;;;;25.45;16.88;;;0.90;57.60;;;-1.23;58.71;96354.53;5012079;28;20061;-64
2022/03/07 04:52:38;;;;;;;15.93;11.48;;;0.90;57.50;;;-1.22;58.52;96350.19;5007185;28;20126;-67
2022/03/07 04:55:05;;;;;;;21.52;13.48;;;0.90;56.90;;;-1.16;58.64;96349.75;5003722;28;20506;-66
2022/03/07 04:57:31;;;;;;;15.77;9.82;;;0.90;57.40;;;-1.15;58.10;96355.72;5009119;28;20040;-65
2022/03/07 04:59:56;;;;;;;11.73;8.75;;;1.00;56.90;;;-1.13;57.98;96361.59;5010483;28;20034;-65
2022/03/07 05:02:22;;;;;;;11.00;8.73;;;1.00;56.50;;;-1.17;57.95;96358.41;5010099;28;20057;-64
2022/03/07 05:04:48;;;;;;;12.23;9.20;;;0.90;56.50;;;-1.17;57.93;96362.75;5008741;28;20052;-67
2022/03/07 05:07:13;;;;;;;14.27;9.65;;;0.90;57.20;;;-1.17;58.02;96373.09;5020780;28;20037;-65
2022/03/07 05:09:39;;;;;;;12.10;9.10;;;0.90;57.50;;;-1.19;58.07;96369.78;5030106;28;20045;-66
2022/03/07 05:12:05;;;;;;;12.07;8.38;;;0.90;57.80;;;-1.18;58.52;96369.69;5028579;28;20029;-65
2022/03/07 05:14:31;;;;;;;12.55;9.25;;;0.80;57.60;;;-1.19;58.58;96362.06;5027870;28;20033;-66
2022/03/07 05:16:57;;;;;;;14.23;9.85;;;0.80;57.60;;;-1.23;58.16;96364.03;5017303;28;20449;-65
2022/03/07 05:19:23;;;;;;;15.40;10.15;;;0.70;57.80;;;-1.26;58.57;96365.06;5028945;28;20531;-65
2022/03/07 05:21:49;;;;;;;13.95;9.50;;;0.70;58.10;;;-1.28;58.59;96356.63;5024591;28;20042;-64
2022/03/07 05:24:15;;;;;;;14.85;9.48;;;0.60;57.80;;;-1.30;58.71;96355.91;5018340;28;20540;-65
2022/03/07 05:26:41;;;;;;;17.38;11.27;;;0.70;57.40;;;-1.31;58.43;96362.00;5012245;28;20021;-66
2022/03/07 05:29:07;;;;;;;17.98;11.15;;;0.70;57.70;;;-1.33;58.69;96352.75;5028927;28;20048;-64
2022/03/07 05:31:32;;;;;;;14.48;9.95;;;0.70;57.90;;;-1.33;58.33;96356.13;5010407;28;20057;-67
2022/03/07 05:33:58;;;;;;;15.52;10.05;;;0.60;58.00;;;-1.36;58.87;96361.53;5009019;28;20030;-65
2022/03/07 05:36:24;;;;;;;13.13;9.23;;;0.70;58.20;;;-1.34;58.39;96364.81;4975648;28;20045;-65
2022/03/07 05:38:50;;;;;;;13.52;9.63;;;0.60;58.50;;;-1.35;58.96;96365.75;5028083;28;20091;-64
2022/03/07 05:41:16;;;;;;;16.48;10.23;;;0.70;58.30;;;-1.33;58.73;96375.97;5028893;28;20528;-67
2022/03/07 05:43:41;;;;;;;16.10;10.30;;;0.60;58.30;;;-1.34;58.90;96372.56;5016613;28;20148;-66
2022/03/07 05:46:07;;;;;;;14.23;10.20;;;0.70;58.40;;;-1.35;59.29;96365.75;5009532;28;20030;-65
2022/03/07 05:48:34;;;;;;;28.08;18.55;;;0.70;58.90;;;-1.36;59.40;96369.25;5009763;28;20073;-66
2022/03/07 05:50:59;;;;;;;18.75;12.55;;;0.70;59.00;;;-1.36;59.28;96364.09;4994677;28;20030;-67
2022/03/07 05:53:25;;;;;;;15.32;10.55;;;0.80;58.60;;;-1.32;58.90;96364.69;5008857;28;20063;-66
2022/03/07 05:55:51;;;;;;;14.40;10.27;;;0.70;58.00;;;-1.35;58.89;96375.25;5013727;28;20115;-67
2022/03/07 05:58:17;;;;;;;14.13;10.55;;;0.60;57.90;;;-1.38;58.84;96371.09;5010562;28;20030;-67
2022/03/07 06:00:43;;;;;;;15.00;10.52;;;0.60;58.10;;;-1.38;58.77;96368.53;5012509;28;20026;-66
2022/03/07 06:03:08;;;;;;;15.00;10.93;;;0.60;58.40;;;-1.40;59.21;96362.66;5012568;28;20076;-66
2022/03/07 06:05:34;;;;;;;14.27;10.57;;;0.60;58.50;;;-1.39;59.43;96369.44;5013600;28;20030;-65
2022/03/07 06:08:00;;;;;;;15.57;10.75;;;0.60;58.50;;;-1.42;59.36;96379.16;5024914;28;20048;-65
2022/03/07 06:10:26;;;;;;;14.65;11.27;;;0.60;58.70;;;-1.42;59.07;96374.84;5031856;28;20701;-66
2022/03/07 06:12:51;;;;;;;16.50;11.18;;;0.60;58.70;;;-1.42;59.44;96385.16;5032134;28;20064;-66
2022/03/07 06:15:18;;;;;;;19.45;12.88;;;0.60;58.70;;;-1.46;59.34;96378.56;5031938;28;20141;-66
2022/03/07 06:17:51;;;;;;;20.75;14.30;;;0.60;59.10;;;-1.40;60.61;96378.13;5022281;28;20062;-65
2022/03/07 06:20:18;;;;;;;16.27;11.90;;;0.70;59.50;;;-1.40;59.31;96383.28;5013353;28;20063;-64
2022/03/07 06:22:44;;;;;;;16.33;11.45;;;0.60;58.70;;;-1.44;59.54;96379.28;5019629;28;20416;-65
2022/03/07 06:25:09;;;;;;;16.42;11.77;;;0.60;58.70;;;-1.41;59.20;96386.81;5033173;28;20041;-66
2022/03/07 06:27:35;;;;;;;17.52;12.10;;;0.60;58.70;;;-1.40;59.68;96397.94;5023449;28;20540;-64
2022/03/07 06:30:01;;;;;;;16.15;11.60;;;0.60;58.90;;;-1.41;59.63;96398.88;5013253;28;20476;-66
2022/03/07 06:32:27;;;;;;;15.70;11.38;;;0.70;58.80;;;-1.40;59.35;96398.78;5012279;28;20537;-67
2022/03/07 06:34:52;;;;;;;16.80;12.90;;;0.60;58.80;;;-1.38;59.34;96391.75;5011712;28;20183;-65
2022/03/07 06:37:18;;;;;;;16.60;12.40;;;0.60;59.00;;;-1.37;59.25;96395.97;5018920;28;20053;-64
2022/03/07 06:39:44;;;;;;;16.85;12.38;;;0.60;58.90;;;-1.35;59.68;96412.19;5031588;28;20029;-65
2022/03/07 06:42:10;;;;;;;17.45;12.38;;;0.70;59.00;;;-1.35;59.53;96411.38;5030867;28;20054;-64
2022/03/07 06:44:39;;;;;;;16.52;13.18;;;0.70;59.20;;;-1.35;59.79;96412.19;5011152;28;20529;-65
2022/03/07 06:47:06;;;;;;;15.40;12.70;;;0.70;58.90;;;-1.34;60.08;96408.69;5016063;28;20091;-65
2022/03/07 06:49:32;;;;;;;18.98;13.18;;;0.70;59.20;;;-1.31;60.05;96411.03;5031366;28;20037;-66
2022/03/07 06:51:58;;;;;;;18.95;12.85;;;0.80;58.70;;;-1.30;60.06;96410.09;5030129;28;20072;-65
2022/03/07 06:54:24;;;;;;;21.38;13.45;;;0.80;58.90;;;-1.26;59.67;96416.69;5011947;28;20034;-66
2022/03/07 06:56:49;;;;;;;21.15;13.77;;;0.90;58.90;;;-1.23;59.93;96413.88;5013343;28;20038;-66
2022/03/07 06:59:15;;;;;;;18.10;13.60;;;0.80;58.60;;;-1.19;59.95;96403.34;5030453;28;20076;-66
2022/03/07 07:01:41;;;;;;;18.35;13.68;;;1.00;58.50;;;-1.17;59.77;96398.91;5032228;28;20037;-64
2022/03/07 07:04:06;;;;;;;19.63;13.43;;;1.00;58.50;;;-1.11;59.93;96403.63;5014347;28;20069;-65
2022/03/07 07:06:32;;;;;;;16.70;13.32;;;1.10;58.30;;;-1.08;60.05;96403.41;5032231;28;20085;-66
2022/03/07 07:08:58;;;;;;;19.52;13.85;;;1.10;58.20;;;-1.06;59.82;96407.53;5014076;28;20460;-66
2022/03/07 07:11:24;;;;;;;18.58;13.52;;;1.10;58.10;;;-1.00;59.85;96407.09;5011287;28;20066;-66
2022/03/07 07:13:49;;;;;;;20.02;14.63;;;1.20;57.90;;;-0.96;59.78;96402.53;5012384;28;20056;-65
2022/03/07 07:16:15;;;;;;;19.05;14.50;;;1.30;57.80;;;-0.92;59.80;96409.09;5011643;28;20030;-65
2022/03/07 07:18:41;;;;;;;24.00;15.65;;;1.40;57.20;;;-0.84;60.30;96411.16;5026188;28;20036;-64
2022/03/07 07:21:07;;;;;;;21.30;15.35;;;1.60;58.30;;;-0.75;59.89;96400.97;5031127;28;20500;-65
2022/03/07 07:23:32;;;;;;;20.75;15.07;;;1.60;56.40;;;-0.65;59.60;96407.13;5019654;28;20038;-64
2022/03/07 07:25:58;;;;;;;23.48;16.55;;;1.90;56.40;;;-0.55;59.62;96416.75;5011428;28;20037;-64
2022/03/07 07:28:24;;;;;;;22.35;15.70;;;2.00;56.60;;;-0.47;59.72;96414.44;5025105;28;20091;-65
2022/03/07 07:30:50;;;;;;;21.08;15.30;;;2.10;55.70;;;-0.38;59.50;96413.78;5030846;28;20038;-65
2022/03/07 07:33:16;;;;;;;17.50;14.45;;;2.10;55.10;;;-0.31;59.21;96417.53;5032040;28;20033;-66
2022/03/07 07:35:42;;;;;;;22.85;16.08;;;2.10;55.00;;;-0.23;59.17;96425.53;4995621;28;20038;-64
2022/03/07 07:38:08;;;;;;;26.98;14.43;;;2.10;55.00;;;-0.20;58.73;96427.09;5011760;28;20049;-65
2022/03/07 07:40:34;;;;;;;18.25;14.57;;;2.10;54.90;;;-0.16;58.89;96441.44;5012140;28;20033;-65
2022/03/07 07:43:00;;;;;;;21.20;14.65;;;2.10;54.50;;;-0.12;58.70;96441.06;5012025;28;20053;-64
2022/03/07 07:45:26;;;;;;;20.27;14.77;;;2.30;55.10;;;-0.07;58.59;96444.13;5019872;28;20046;-66
2022/03/07 07:47:52;;;;;;;18.20;15.95;;;2.40;54.40;;;-0.03;58.78;96450.72;5011664;28;20057;-65
2022/03/07 07:50:18;;;;;;;20.77;15.80;;;2.40;54.00;;;0.01;58.33;96445.34;5012110;28;20041;-66
2022/03/07 07:52:44;;;;;;;17.95;16.05;;;2.40;54.00;;;0.12;58.44;96455.69;5006142;28;20033;-65
2022/03/07 07:55:10;;;;;;;21.63;16.10;;;2.60;54.00;;;0.17;58.44;96448.41;5032862;28;20064;-66
2022/03/07 07:57:36;;;;;;;21.38;15.68;;;2.50;53.40;;;0.24;58.10;96452.19;5015701;28;20049;-66
2022/03/07 08:00:03;;;;;;;21.15;15.77;;;2.60;53.70;;;0.27;58.08;96451.94;5033256;28;20072;-66
2022/03/07 08:02:29;;;;;;;20.23;15.48;;;2.70;53.40;;;0.33;58.08;96456.66;5022682;28;20045;-65
2022/03/07 08:04:55;;;;;;;18.02;15.88;;;2.90;52.40;;;0.44;58.10;96464.41;5013107;28;20430;-65
2022/03/07 08:07:21;;;;;;;21.45;15.60;;;3.10;52.50;;;0.50;57.76;96463.94;5018152;28;20040;-65
2022/03/07 08:09:47;;;;;;;19.15;16.27;;;3.10;52.60;;;0.63;57.55;96465.56;5029974;28;20470;-64
2022/03/07 08:12:17;;;;;;;23.23;15.68;;;3.30;52.00;;;0.69;57.73;96473.72;5016760;28;20034;-65
2022/03/07 08:14:43;;;;;;;20.67;16.48;;;3.20;51.50;;;0.72;57.34;96475.22;5009693;28;20040;-65
2022/03/07 08:17:09;;;;;;;21.75;17.17;;;3.10;51.70;;;0.72;56.98;96475.22;5011401;28;20038;-67
2022/03/07 08:19:35;;;;;;;20.10;17.27;;;3.10;51.40;;;0.78;56.82;96477.34;4994413;28;20045;-66
2022/03/07 08:22:00;;;;;;;21.58;16.20;;;3.30;51.20;;;0.78;56.61;96472.16;5009324;28;20030;-64
2022/03/07 08:24:26;;;;;;;19.63;17.58;;;3.20;51.00;;;0.82;56.96;96479.56;5009656;28;20038;-66
2022/03/07 08:26:52;;;;;;;19.45;17.38;;;3.30;51.40;;;0.90;56.70;96484.94;5011220;28;20461;-65
2022/03/07 08:29:17;;;;;;;21.63;17.65;;;3.20;50.60;;;1.01;55.95;96488.50;5027489;28;20141;-66
2022/03/07 08:31:43;;;;;;;20.55;15.85;;;3.40;50.90;;;1.08;56.06;96492.22;5029408;28;20052;-66
2022/03/07 08:34:09;;;;;;;19.45;17.35;;;3.60;50.60;;;1.10;55.67;96488.56;5030247;28;20056;-65
2022/03/07 08:36:35;;;;;;;19.60;16.80;;;3.70;50.10;;;1.17;56.19;96494.94;5012628;28;20057;-67
2022/03/07 08:39:01;;;;;;;20.63;16.90;;;3.80;49.80;;;1.28;56.08;96493.25;5013745;28;20038;-65
2022/03/07 08:41:27;;;;;;;21.17;17.63;;;3.90;50.20;;;1.33;56.06;96501.47;5011103;28;20577;-67
2022/03/07 08:43:54;;;;;;;20.15;17.42;;;4.10;49.80;;;1.44;55.62;96501.47;5006122;28;20114;-66
2022/03/07 08:46:21;;;;;;;19.02;17.02;;;4.20;49.40;;;1.52;55.79;96493.88;5009855;28;20041;-67
2022/03/07 08:48:46;;;;;;;19.42;17.40;;;4.30;48.70;;;1.52;54.65;96481.75;4993565;28;20080;-66
2022/03/07 08:51:12;;;;;;;21.83;19.30;;;4.20;48.30;;;1.72;55.29;96500.88;4993315;28;20383;-67
2022/03/07 08:53:38;;;;;;;21.85;17.92;;;4.40;49.20;;;1.79;53.94;96496.81;5021849;28;20656;-67
2022/03/07 08:56:04;;;;;;;21.20;18.90;;;4.20;48.10;;;1.84;54.78;96494.69;5028484;28;20064;-66
2022/03/07 08:58:29;;;;;;;20.73;17.77;;;4.40;49.10;;;1.92;54.03;96506.22;5017701;28;20038;-66
2022/03/07 09:00:55;;;;;;;20.77;17.83;;;4.60;48.10;;;1.96;53.91;96503.25;5009227;28;20045;-66
2022/03/07 09:03:21;;;;;;;20.08;17.95;;;4.70;47.30;;;2.01;53.85;96501.06;5009442;28;20030;-67
2022/03/07 09:05:46;;;;;;;21.88;17.95;;;4.80;46.50;;;2.11;53.83;96503.75;4996216;28;20095;-66
2022/03/07 09:08:12;;;;;;;20.08;17.70;;;4.90;47.00;;;2.14;53.29;96508.69;5023307;28;20030;-67
2022/03/07 09:10:38;;;;;;;20.30;17.90;;;5.00;46.60;;;2.22;53.65;96508.88;5021245;28;20072;-66
2022/03/07 09:13:04;;;;;;;20.35;17.95;;;5.10;46.30;;;2.30;53.02;96510.84;5028891;28;20030;-65
2022/03/07 09:15:30;;;;;;;20.23;17.55;;;5.20;45.90;;;2.43;53.31;96517.47;5029785;28;20120;-66
2022/03/07 09:17:55;;;;;;;20.33;17.52;;;5.40;45.90;;;2.53;52.73;96507.16;5028779;28;20033;-67
2022/03/07 09:20:21;;;;;;;19.98;17.88;;;5.60;45.10;;;2.61;52.28;96498.69;5020907;28;20050;-67
2022/03/07 09:22:47;;;;;;;22.15;17.85;;;5.60;44.30;;;2.66;51.88;96512.09;5009034;28;20049;-66
2022/03/07 09:25:13;;;;;;;19.63;17.38;;;5.60;43.80;;;2.62;51.76;96502.94;5012239;28;20068;-66
2022/03/07 09:27:39;;;;;;;19.30;17.20;;;5.60;44.10;;;2.80;52.08;96508.34;5012229;28;20113;-67
2022/03/07 09:30:06;;;;;;;23.25;18.38;;;5.70;44.60;;;2.90;51.39;96515.22;5024612;28;20049;-70
2022/03/07 09:32:32;;;;;;;20.17;18.08;;;5.80;44.90;;;2.98;51.17;96517.19;5010232;28;20403;-68
2022/03/07 09:34:58;;;;;;;20.25;18.08;;;5.70;44.10;;;3.05;50.72;96519.09;5009879;28;20034;-66
2022/03/07 09:37:23;;;;;;;20.58;18.20;;;5.70;44.40;;;3.01;50.63;96525.53;5009730;28;20045;-66
2022/03/07 09:39:49;;;;;;;19.70;17.58;;;5.80;43.70;;;3.01;50.79;96528.13;4992489;28;20038;-65
2022/03/07 09:42:15;;;;;;;21.75;17.45;;;5.90;43.30;;;3.13;50.45;96528.00;4991893;28;20038;-66
2022/03/07 09:44:41;;;;;;;22.73;18.42;;;6.10;42.80;;;3.18;50.25;96531.06;5013043;28;20469;-65
2022/03/07 09:47:07;;;;;;;20.73;18.40;;;6.20;43.30;;;3.27;50.26;96532.84;4995754;28;20517;-65
2022/03/07 09:49:32;;;;;;;22.08;18.73;;;6.10;42.60;;;3.31;49.79;96526.41;5029643;28;20022;-66
2022/03/07 09:51:58;;;;;;;20.60;18.20;;;6.30;42.30;;;3.38;49.73;96530.13;5027331;28;20034;-66
2022/03/07 09:54:24;;;;;;;19.95;17.83;;;6.30;42.40;;;3.42;49.96;96534.13;5009099;28;20065;-65
2022/03/07 09:56:51;;;;;;;19.17;17.10;;;6.30;42.60;;;3.41;49.35;96534.25;4993186;28;20065;-66
2022/03/07 09:59:17;;;;;;;21.00;18.67;;;6.10;42.30;;;3.45;49.46;96546.03;5018701;28;20192;-65
2022/03/07 10:01:43;;;;;;;19.98;17.88;;;6.10;43.20;;;3.48;48.77;96540.56;5029469;28;20040;-65
2022/03/07 10:04:11;;;;;;;21.00;18.77;;;5.90;43.30;;;3.47;49.39;96550.13;5027705;28;20037;-65
2022/03/07 10:06:37;;;;;;;21.73;18.88;;;6.10;43.10;;;3.53;49.42;96541.78;5028156;28;20029;-66
2022/03/07 10:09:03;;;;;;;19.85;17.65;;;6.50;42.60;;;3.62;48.69;96543.59;4993091;28;20505;-66